createdAt,value
2018-12-31T04:01:10.072Z,1034.2
2018-12-31T04:06:04.952Z,1034.2
2018-12-31T04:11:04.743Z,1034.2
2018-12-31T04:16:04.996Z,1034.2
2018-12-31T04:21:11.027Z,1034.2
2018-12-31T04:26:04.701Z,1034.2
2018-12-31T04:31:10.057Z,1034.2
2018-12-31T04:36:09.621Z,1034.2
2018-12-31T04:41:07.511Z,1034.2
2018-12-31T04:46:04.357Z,1034.2
2018-12-31T04:51:08.361Z,1034.2
2018-12-31T04:56:06.500Z,1034.2
2018-12-31T05:01:05.847Z,1034.2
2018-12-31T05:06:04.745Z,1034.2
2018-12-31T05:11:04.224Z,1034.2
2018-12-31T05:16:04.779Z,1034.2
2018-12-31T05:21:06.967Z,1034.1
2018-12-31T05:26:12.031Z,1034.1
2018-12-31T05:31:04.927Z,1034.1
2018-12-31T05:36:04.525Z,1034.1
2018-12-31T05:41:05.660Z,1034.1
2018-12-31T05:46:04.351Z,1034.1
2018-12-31T05:51:05.000Z,1034.4
2018-12-31T05:56:05.228Z,1034.4
2018-12-31T06:01:06.739Z,1034.4
2018-12-31T06:06:10.726Z,1034.4
2018-12-31T06:11:06.778Z,1034.4
2018-12-31T06:16:07.876Z,1034.3
2018-12-31T06:21:11.649Z,1034.3
2018-12-31T06:26:07.176Z,1034.3
2018-12-31T06:31:04.323Z,1034.5
2018-12-31T06:36:04.778Z,1034.5
2018-12-31T06:41:04.339Z,1034.5
2018-12-31T06:46:05.150Z,1034.5
2018-12-31T06:51:05.672Z,1034.5
2018-12-31T06:56:04.298Z,1034.5
2018-12-31T07:01:05.218Z,1034.5
2018-12-31T07:06:04.717Z,1034.5
2018-12-31T07:11:04.717Z,1034.5
2018-12-31T07:16:05.598Z,1034.9
2018-12-31T07:21:04.804Z,1034.9
2018-12-31T07:26:04.678Z,1034.9
2018-12-31T07:31:05.138Z,1035.1
2018-12-31T07:36:04.560Z,1035.1
2018-12-31T07:41:03.961Z,1035.2
2018-12-31T07:46:04.526Z,1035.2
2018-12-31T07:51:04.776Z,1035.1
2018-12-31T07:56:03.933Z,1035.1
2018-12-31T15:16:05.255Z,1035
2018-12-31T15:21:04.226Z,1035
2018-12-31T15:26:10.055Z,1035
2018-12-31T15:31:04.746Z,1035
2018-12-31T15:36:04.173Z,1035
2018-12-31T15:41:04.604Z,1035
2018-12-31T15:46:04.606Z,1035.3
2018-12-31T15:51:05.134Z,1035.3
2018-12-31T15:56:04.831Z,1035.3
2018-12-31T16:01:04.529Z,1035.4
2018-12-31T16:06:03.925Z,1035.4
2018-12-31T16:11:13.373Z,1035.4
2018-12-31T16:16:05.414Z,1035.4
2018-12-31T16:21:08.019Z,1035.4
2018-12-31T16:26:06.309Z,1035.4
2018-12-31T16:31:03.913Z,1035.3
2018-12-31T16:36:04.209Z,1035.3
2018-12-31T16:41:03.777Z,1035.3
2018-12-31T16:46:09.243Z,1035.2
2018-12-31T16:51:07.398Z,1035.2
2018-12-31T16:56:06.041Z,1035.3
2018-12-31T17:01:06.692Z,1035.3
2018-12-31T17:06:06.110Z,1035.3
2018-12-31T17:11:06.030Z,1035.3
2018-12-31T17:16:04.402Z,1035.3
2018-12-31T17:21:03.858Z,1035.3
2018-12-31T17:26:11.626Z,1035.2
2018-12-31T17:31:04.734Z,1035.3
2018-12-31T17:36:05.654Z,1035.3
2018-12-31T17:41:05.815Z,1035.2
2018-12-31T17:46:05.917Z,1035.3
2018-12-31T17:51:06.049Z,1035.3
2018-12-31T17:56:06.465Z,1035.2
2018-12-31T18:01:07.704Z,1035.3
2018-12-31T18:06:07.267Z,1035.3
2018-12-31T18:11:06.259Z,1035.3
2018-12-31T18:16:05.914Z,1035.3
2018-12-31T18:21:05.710Z,1035.3
2018-12-31T18:26:07.335Z,1035.3
2018-12-31T18:31:03.972Z,1035.3
2018-12-31T18:36:05.395Z,1035.3
2018-12-31T18:41:04.006Z,1035.4
2018-12-31T18:46:06.612Z,1035.4
2018-12-31T18:51:09.289Z,1035.3
2018-12-31T18:56:06.692Z,1035.4
2018-12-31T19:01:08.277Z,1035.4
2018-12-31T19:06:06.383Z,1035.5
2018-12-31T19:11:06.139Z,1035.5
2018-12-31T19:16:07.099Z,1035.5
2018-12-31T19:21:04.094Z,1035.5
2018-12-31T19:26:04.326Z,1035.5
2018-12-31T19:31:05.064Z,1035.5
2018-12-31T19:36:05.119Z,1035.5
2018-12-31T19:41:04.666Z,1035.5
2018-12-31T19:46:05.815Z,1035.4
2018-12-31T19:51:06.524Z,1035.4
2018-12-31T19:56:09.365Z,1035.4
2018-12-31T20:01:07.047Z,1035.4
2018-12-31T20:06:06.579Z,1035.1
2018-12-31T20:11:03.963Z,1035.1
2018-12-31T20:16:04.231Z,1035.1
2018-12-31T20:21:05.114Z,1035
2018-12-31T20:26:04.503Z,1034.9
2018-12-31T20:31:04.735Z,1034.9
2018-12-31T20:36:05.459Z,1034.9
2018-12-31T20:41:04.994Z,1034.8
2018-12-31T20:46:04.954Z,1034.8
2018-12-31T20:51:04.828Z,1034.8
2018-12-31T20:56:04.307Z,1034.8
2018-12-31T21:01:07.488Z,1034.8
2018-12-31T21:06:04.581Z,1034.8
2018-12-31T21:11:05.044Z,1034.6
2018-12-31T21:16:05.809Z,1034.6
2018-12-31T21:21:04.422Z,1034.6
2018-12-31T21:26:04.661Z,1034.4
2018-12-31T21:31:03.979Z,1034.4
2018-12-31T21:36:04.447Z,1034.5
2018-12-31T21:41:04.009Z,1034.4
2018-12-31T21:46:04.295Z,1034.4
2018-12-31T21:51:05.704Z,1034.5
2018-12-31T21:56:03.925Z,1034.3
2018-12-31T22:01:07.751Z,1034.4
2018-12-31T22:06:06.460Z,1034.4
2018-12-31T22:11:09.995Z,1034.4
2018-12-31T22:16:05.458Z,1034.4
2018-12-31T22:21:04.054Z,1034.4
2018-12-31T22:26:04.739Z,1034.4
2018-12-31T22:31:04.525Z,1034.4
2018-12-31T22:36:04.556Z,1034.5
2018-12-31T22:41:04.631Z,1034.4
